sensor_id;sensor_type;location;lat;lon;timestamp;P1;durP1;ratioP1;P2;durP2;ratioP2
57325;SDS011;43161;50.950;18.224;2023-09-19T00:00:42;21.70;;;14.90;;
57325;SDS011;43161;50.950;18.224;2023-09-19T00:03:09;25.00;;;15.40;;
57325;SDS011;43161;50.950;18.224;2023-09-19T00:05:37;22.70;;;14.60;;
57325;SDS011;43161;50.950;18.224;2023-09-19T00:08:04;24.00;;;15.00;;
57325;SDS011;43161;50.950;18.224;2023-09-19T00:10:30;25.70;;;15.60;;
57325;SDS011;43161;50.950;18.224;2023-09-19T00:12:57;22.50;;;15.30;;
57325;SDS011;43161;50.950;18.224;2023-09-19T00:15:31;24.70;;;15.50;;
57325;SDS011;43161;50.950;18.224;2023-09-19T00:18:01;26.00;;;16.30;;
57325;SDS011;43161;50.950;18.224;2023-09-19T00:20:26;27.10;;;15.40;;
57325;SDS011;43161;50.950;18.224;2023-09-19T00:22:53;26.70;;;15.40;;
57325;SDS011;43161;50.950;18.224;2023-09-19T00:25:19;27.10;;;15.90;;
57325;SDS011;43161;50.950;18.224;2023-09-19T00:27:46;27.40;;;15.50;;
57325;SDS011;43161;50.950;18.224;2023-09-19T00:30:13;24.00;;;15.70;;
57325;SDS011;43161;50.950;18.224;2023-09-19T00:32:45;24.20;;;15.50;;
57325;SDS011;43161;50.950;18.224;2023-09-19T00:35:13;22.50;;;15.50;;
57325;SDS011;43161;50.950;18.224;2023-09-19T00:37:40;21.80;;;15.30;;
57325;SDS011;43161;50.950;18.224;2023-09-19T00:40:07;23.50;;;15.60;;
57325;SDS011;43161;50.950;18.224;2023-09-19T00:42:39;24.50;;;15.20;;
57325;SDS011;43161;50.950;18.224;2023-09-19T00:45:08;22.90;;;15.30;;
57325;SDS011;43161;50.950;18.224;2023-09-19T00:47:42;22.10;;;15.20;;
57325;SDS011;43161;50.950;18.224;2023-09-19T00:50:09;22.50;;;15.30;;
57325;SDS011;43161;50.950;18.224;2023-09-19T00:52:39;24.80;;;15.30;;
57325;SDS011;43161;50.950;18.224;2023-09-19T00:55:05;26.70;;;14.50;;
57325;SDS011;43161;50.950;18.224;2023-09-19T00:57:33;22.80;;;15.00;;
57325;SDS011;43161;50.950;18.224;2023-09-19T00:59:59;22.90;;;14.90;;
57325;SDS011;43161;50.950;18.224;2023-09-19T01:02:30;22.00;;;15.10;;
57325;SDS011;43161;50.950;18.224;2023-09-19T01:04:56;21.20;;;14.60;;
57325;SDS011;43161;50.950;18.224;2023-09-19T01:07:23;23.80;;;14.60;;
57325;SDS011;43161;50.950;18.224;2023-09-19T01:09:48;23.80;;;14.50;;
57325;SDS011;43161;50.950;18.224;2023-09-19T01:12:16;23.80;;;14.80;;
57325;SDS011;43161;50.950;18.224;2023-09-19T01:14:54;22.80;;;14.60;;
57325;SDS011;43161;50.950;18.224;2023-09-19T01:17:38;25.00;;;14.50;;
57325;SDS011;43161;50.950;18.224;2023-09-19T01:20:37;22.80;;;15.00;;
57325;SDS011;43161;50.950;18.224;2023-09-19T01:31:12;24.20;;;14.30;;
57325;SDS011;43161;50.950;18.224;2023-09-19T01:36:32;22.00;;;14.40;;
57325;SDS011;43161;50.950;18.224;2023-09-19T01:39:04;23.70;;;15.60;;
57325;SDS011;43161;50.950;18.224;2023-09-19T01:41:43;26.80;;;14.80;;
57325;SDS011;43161;50.950;18.224;2023-09-19T01:47:26;23.40;;;15.30;;
57325;SDS011;43161;50.950;18.224;2023-09-19T01:50:02;23.90;;;14.90;;
57325;SDS011;43161;50.950;18.224;2023-09-19T01:52:38;24.90;;;15.20;;
57325;SDS011;43161;50.950;18.224;2023-09-19T01:55:11;23.40;;;15.00;;
57325;SDS011;43161;50.950;18.224;2023-09-19T01:57:48;23.60;;;15.20;;
57325;SDS011;43161;50.950;18.224;2023-09-19T02:00:18;23.20;;;14.80;;
57325;SDS011;43161;50.950;18.224;2023-09-19T02:02:46;26.40;;;17.10;;
57325;SDS011;43161;50.950;18.224;2023-09-19T02:05:22;26.90;;;16.30;;
57325;SDS011;43161;50.950;18.224;2023-09-19T02:07:49;25.80;;;17.30;;
57325;SDS011;43161;50.950;18.224;2023-09-19T02:10:15;24.60;;;15.80;;
57325;SDS011;43161;50.950;18.224;2023-09-19T02:12:42;25.10;;;16.70;;
57325;SDS011;43161;50.950;18.224;2023-09-19T02:15:07;25.50;;;15.80;;
57325;SDS011;43161;50.950;18.224;2023-09-19T02:17:34;24.40;;;16.30;;
57325;SDS011;43161;50.950;18.224;2023-09-19T02:20:00;27.00;;;17.10;;
57325;SDS011;43161;50.950;18.224;2023-09-19T02:22:26;25.80;;;17.40;;
57325;SDS011;43161;50.950;18.224;2023-09-19T02:24:53;29.10;;;17.40;;
57325;SDS011;43161;50.950;18.224;2023-09-19T02:27:19;25.10;;;16.70;;
57325;SDS011;43161;50.950;18.224;2023-09-19T02:29:44;26.10;;;17.60;;
57325;SDS011;43161;50.950;18.224;2023-09-19T02:32:10;27.30;;;17.50;;
57325;SDS011;43161;50.950;18.224;2023-09-19T02:34:36;25.60;;;17.10;;
57325;SDS011;43161;50.950;18.224;2023-09-19T02:37:04;27.60;;;18.10;;
57325;SDS011;43161;50.950;18.224;2023-09-19T02:39:31;27.60;;;17.80;;
57325;SDS011;43161;50.950;18.224;2023-09-19T02:41:57;27.30;;;16.40;;
57325;SDS011;43161;50.950;18.224;2023-09-19T02:44:23;24.50;;;15.70;;
57325;SDS011;43161;50.950;18.224;2023-09-19T02:46:49;27.70;;;17.80;;
57325;SDS011;43161;50.950;18.224;2023-09-19T02:49:15;26.30;;;18.10;;
57325;SDS011;43161;50.950;18.224;2023-09-19T02:51:43;25.90;;;18.40;;
57325;SDS011;43161;50.950;18.224;2023-09-19T02:54:09;26.30;;;18.60;;
57325;SDS011;43161;50.950;18.224;2023-09-19T02:56:35;26.80;;;18.50;;
57325;SDS011;43161;50.950;18.224;2023-09-19T02:59:01;27.90;;;17.80;;
57325;SDS011;43161;50.950;18.224;2023-09-19T03:01:27;25.80;;;16.90;;
57325;SDS011;43161;50.950;18.224;2023-09-19T03:03:54;26.50;;;17.10;;
57325;SDS011;43161;50.950;18.224;2023-09-19T03:06:20;27.90;;;18.20;;
57325;SDS011;43161;50.950;18.224;2023-09-19T03:08:47;28.20;;;18.80;;
57325;SDS011;43161;50.950;18.224;2023-09-19T03:11:15;28.10;;;18.40;;
57325;SDS011;43161;50.950;18.224;2023-09-19T03:13:44;29.20;;;19.30;;
57325;SDS011;43161;50.950;18.224;2023-09-19T03:16:11;28.70;;;18.40;;
57325;SDS011;43161;50.950;18.224;2023-09-19T03:18:37;28.30;;;20.90;;
57325;SDS011;43161;50.950;18.224;2023-09-19T03:21:02;28.60;;;19.20;;
57325;SDS011;43161;50.950;18.224;2023-09-19T03:23:29;29.00;;;18.50;;
57325;SDS011;43161;50.950;18.224;2023-09-19T03:25:55;29.40;;;17.10;;
57325;SDS011;43161;50.950;18.224;2023-09-19T03:28:24;28.00;;;18.40;;
57325;SDS011;43161;50.950;18.224;2023-09-19T03:33:31;25.90;;;15.30;;
57325;SDS011;43161;50.950;18.224;2023-09-19T03:35:58;24.00;;;13.80;;
57325;SDS011;43161;50.950;18.224;2023-09-19T03:38:24;23.40;;;13.80;;
57325;SDS011;43161;50.950;18.224;2023-09-19T03:40:51;21.20;;;13.40;;
57325;SDS011;43161;50.950;18.224;2023-09-19T03:43:16;23.30;;;12.50;;
57325;SDS011;43161;50.950;18.224;2023-09-19T03:45:42;19.20;;;11.80;;
57325;SDS011;43161;50.950;18.224;2023-09-19T03:48:09;20.10;;;11.40;;
57325;SDS011;43161;50.950;18.224;2023-09-19T03:50:35;19.70;;;10.90;;
57325;SDS011;43161;50.950;18.224;2023-09-19T03:53:01;18.30;;;10.20;;
57325;SDS011;43161;50.950;18.224;2023-09-19T03:55:27;18.80;;;10.30;;
57325;SDS011;43161;50.950;18.224;2023-09-19T03:57:53;18.70;;;10.00;;
57325;SDS011;43161;50.950;18.224;2023-09-19T04:00:19;20.00;;;9.20;;
57325;SDS011;43161;50.950;18.224;2023-09-19T04:02:51;19.70;;;9.90;;
57325;SDS011;43161;50.950;18.224;2023-09-19T04:05:17;19.60;;;9.70;;
57325;SDS011;43161;50.950;18.224;2023-09-19T04:07:43;16.40;;;8.70;;
57325;SDS011;43161;50.950;18.224;2023-09-19T04:10:09;17.10;;;9.40;;
57325;SDS011;43161;50.950;18.224;2023-09-19T04:12:37;20.00;;;9.40;;
57325;SDS011;43161;50.950;18.224;2023-09-19T04:15:04;17.50;;;8.20;;
57325;SDS011;43161;50.950;18.224;2023-09-19T04:17:30;16.80;;;8.30;;
57325;SDS011;43161;50.950;18.224;2023-09-19T04:19:58;15.80;;;8.20;;
57325;SDS011;43161;50.950;18.224;2023-09-19T04:22:24;16.20;;;7.80;;
57325;SDS011;43161;50.950;18.224;2023-09-19T04:24:50;15.20;;;8.10;;
57325;SDS011;43161;50.950;18.224;2023-09-19T04:27:16;14.80;;;7.50;;
57325;SDS011;43161;50.950;18.224;2023-09-19T04:29:42;15.40;;;6.60;;
57325;SDS011;43161;50.950;18.224;2023-09-19T04:32:08;14.00;;;5.70;;
57325;SDS011;43161;50.950;18.224;2023-09-19T04:34:35;15.60;;;6.10;;
57325;SDS011;43161;50.950;18.224;2023-09-19T04:37:00;15.70;;;5.90;;
57325;SDS011;43161;50.950;18.224;2023-09-19T04:39:27;18.40;;;5.30;;
57325;SDS011;43161;50.950;18.224;2023-09-19T04:41:53;12.80;;;5.40;;
57325;SDS011;43161;50.950;18.224;2023-09-19T04:44:20;12.60;;;5.10;;
57325;SDS011;43161;50.950;18.224;2023-09-19T04:46:46;13.70;;;5.30;;
57325;SDS011;43161;50.950;18.224;2023-09-19T04:49:13;13.80;;;6.70;;
57325;SDS011;43161;50.950;18.224;2023-09-19T04:51:38;14.70;;;6.00;;
57325;SDS011;43161;50.950;18.224;2023-09-19T04:54:05;14.40;;;5.30;;
57325;SDS011;43161;50.950;18.224;2023-09-19T04:56:31;10.80;;;4.80;;
57325;SDS011;43161;50.950;18.224;2023-09-19T04:58:58;12.20;;;4.10;;
57325;SDS011;43161;50.950;18.224;2023-09-19T05:01:25;12.60;;;4.20;;
57325;SDS011;43161;50.950;18.224;2023-09-19T05:03:52;11.30;;;3.70;;
57325;SDS011;43161;50.950;18.224;2023-09-19T05:06:21;12.70;;;4.70;;
57325;SDS011;43161;50.950;18.224;2023-09-19T05:08:47;13.90;;;3.90;;
57325;SDS011;43161;50.950;18.224;2023-09-19T05:11:17;11.00;;;3.80;;
57325;SDS011;43161;50.950;18.224;2023-09-19T05:13:44;11.40;;;3.50;;
57325;SDS011;43161;50.950;18.224;2023-09-19T05:16:10;10.80;;;3.40;;
57325;SDS011;43161;50.950;18.224;2023-09-19T05:18:35;10.50;;;3.90;;
57325;SDS011;43161;50.950;18.224;2023-09-19T05:21:02;11.10;;;3.80;;
57325;SDS011;43161;50.950;18.224;2023-09-19T05:23:28;12.20;;;3.70;;
57325;SDS011;43161;50.950;18.224;2023-09-19T05:25:54;10.30;;;3.10;;
57325;SDS011;43161;50.950;18.224;2023-09-19T05:28:22;10.40;;;3.70;;
57325;SDS011;43161;50.950;18.224;2023-09-19T05:30:48;10.30;;;3.30;;
57325;SDS011;43161;50.950;18.224;2023-09-19T05:33:15;8.90;;;2.80;;
57325;SDS011;43161;50.950;18.224;2023-09-19T05:35:42;10.70;;;3.00;;
57325;SDS011;43161;50.950;18.224;2023-09-19T05:38:07;9.50;;;2.70;;
57325;SDS011;43161;50.950;18.224;2023-09-19T05:40:38;14.70;;;3.10;;
57325;SDS011;43161;50.950;18.224;2023-09-19T05:43:06;12.30;;;3.00;;
57325;SDS011;43161;50.950;18.224;2023-09-19T05:45:31;13.10;;;3.80;;
57325;SDS011;43161;50.950;18.224;2023-09-19T05:48:06;8.80;;;3.10;;
57325;SDS011;43161;50.950;18.224;2023-09-19T05:50:33;12.80;;;3.60;;
57325;SDS011;43161;50.950;18.224;2023-09-19T05:52:59;13.10;;;3.70;;
57325;SDS011;43161;50.950;18.224;2023-09-19T05:55:25;11.10;;;3.30;;
57325;SDS011;43161;50.950;18.224;2023-09-19T05:57:51;10.20;;;3.10;;
57325;SDS011;43161;50.950;18.224;2023-09-19T06:00:18;12.80;;;3.10;;
57325;SDS011;43161;50.950;18.224;2023-09-19T06:02:51;10.60;;;2.60;;
57325;SDS011;43161;50.950;18.224;2023-09-19T06:05:20;9.10;;;2.50;;
57325;SDS011;43161;50.950;18.224;2023-09-19T06:07:46;9.90;;;2.50;;
57325;SDS011;43161;50.950;18.224;2023-09-19T06:10:12;13.80;;;2.70;;
57325;SDS011;43161;50.950;18.224;2023-09-19T06:12:39;7.40;;;2.00;;
57325;SDS011;43161;50.950;18.224;2023-09-19T06:15:05;10.80;;;3.20;;
57325;SDS011;43161;50.950;18.224;2023-09-19T06:17:34;9.50;;;2.50;;
57325;SDS011;43161;50.950;18.224;2023-09-19T06:20:06;9.40;;;2.30;;
57325;SDS011;43161;50.950;18.224;2023-09-19T06:22:43;12.30;;;2.40;;
57325;SDS011;43161;50.950;18.224;2023-09-19T06:25:10;11.30;;;2.30;;
57325;SDS011;43161;50.950;18.224;2023-09-19T06:27:38;8.10;;;2.20;;
57325;SDS011;43161;50.950;18.224;2023-09-19T06:30:06;10.10;;;2.20;;
57325;SDS011;43161;50.950;18.224;2023-09-19T06:32:33;9.90;;;2.50;;
57325;SDS011;43161;50.950;18.224;2023-09-19T06:34:59;8.70;;;2.00;;
57325;SDS011;43161;50.950;18.224;2023-09-19T06:37:27;8.00;;;2.20;;
57325;SDS011;43161;50.950;18.224;2023-09-19T06:39:53;8.00;;;1.90;;
57325;SDS011;43161;50.950;18.224;2023-09-19T06:42:19;8.90;;;2.10;;
57325;SDS011;43161;50.950;18.224;2023-09-19T06:44:44;11.40;;;2.40;;
57325;SDS011;43161;50.950;18.224;2023-09-19T06:47:10;8.90;;;2.40;;
57325;SDS011;43161;50.950;18.224;2023-09-19T06:49:36;9.20;;;1.90;;
57325;SDS011;43161;50.950;18.224;2023-09-19T06:52:02;8.50;;;2.00;;
57325;SDS011;43161;50.950;18.224;2023-09-19T06:54:28;8.30;;;2.10;;
57325;SDS011;43161;50.950;18.224;2023-09-19T06:56:59;11.50;;;2.70;;
57325;SDS011;43161;50.950;18.224;2023-09-19T06:59:25;8.30;;;2.80;;
57325;SDS011;43161;50.950;18.224;2023-09-19T07:01:51;8.70;;;2.70;;
57325;SDS011;43161;50.950;18.224;2023-09-19T07:04:16;7.80;;;2.30;;
57325;SDS011;43161;50.950;18.224;2023-09-19T07:06:49;8.00;;;2.10;;
57325;SDS011;43161;50.950;18.224;2023-09-19T07:09:15;6.40;;;1.50;;
57325;SDS011;43161;50.950;18.224;2023-09-19T07:11:41;9.10;;;1.80;;
57325;SDS011;43161;50.950;18.224;2023-09-19T07:14:08;7.20;;;1.60;;
57325;SDS011;43161;50.950;18.224;2023-09-19T07:16:37;7.70;;;1.80;;
57325;SDS011;43161;50.950;18.224;2023-09-19T07:19:04;8.20;;;1.60;;
57325;SDS011;43161;50.950;18.224;2023-09-19T07:21:30;8.20;;;1.60;;
57325;SDS011;43161;50.950;18.224;2023-09-19T07:24:01;7.80;;;1.70;;
57325;SDS011;43161;50.950;18.224;2023-09-19T07:26:30;8.20;;;1.70;;
57325;SDS011;43161;50.950;18.224;2023-09-19T07:28:56;7.00;;;1.50;;
57325;SDS011;43161;50.950;18.224;2023-09-19T07:31:23;7.00;;;1.20;;
57325;SDS011;43161;50.950;18.224;2023-09-19T07:33:50;9.00;;;1.80;;
57325;SDS011;43161;50.950;18.224;2023-09-19T07:36:17;8.10;;;1.40;;
57325;SDS011;43161;50.950;18.224;2023-09-19T07:38:43;8.10;;;1.20;;
57325;SDS011;43161;50.950;18.224;2023-09-19T07:41:09;5.90;;;1.50;;
57325;SDS011;43161;50.950;18.224;2023-09-19T07:43:35;6.70;;;1.80;;
57325;SDS011;43161;50.950;18.224;2023-09-19T07:46:03;7.10;;;1.40;;
57325;SDS011;43161;50.950;18.224;2023-09-19T07:48:32;4.70;;;1.40;;
57325;SDS011;43161;50.950;18.224;2023-09-19T07:51:05;9.70;;;1.60;;
57325;SDS011;43161;50.950;18.224;2023-09-19T07:53:32;9.40;;;1.50;;
57325;SDS011;43161;50.950;18.224;2023-09-19T07:56:06;7.70;;;1.50;;
57325;SDS011;43161;50.950;18.224;2023-09-19T07:58:33;7.70;;;1.40;;
57325;SDS011;43161;50.950;18.224;2023-09-19T08:01:05;6.80;;;1.40;;
57325;SDS011;43161;50.950;18.224;2023-09-19T08:03:32;6.70;;;1.30;;
57325;SDS011;43161;50.950;18.224;2023-09-19T08:05:58;7.60;;;1.90;;
57325;SDS011;43161;50.950;18.224;2023-09-19T08:08:23;7.20;;;1.70;;
57325;SDS011;43161;50.950;18.224;2023-09-19T08:10:56;5.70;;;1.50;;
57325;SDS011;43161;50.950;18.224;2023-09-19T08:13:22;8.30;;;1.90;;
57325;SDS011;43161;50.950;18.224;2023-09-19T08:15:49;8.20;;;1.80;;
57325;SDS011;43161;50.950;18.224;2023-09-19T08:18:16;6.70;;;1.90;;
57325;SDS011;43161;50.950;18.224;2023-09-19T08:20:42;8.20;;;1.80;;
57325;SDS011;43161;50.950;18.224;2023-09-19T08:23:11;7.90;;;1.60;;
57325;SDS011;43161;50.950;18.224;2023-09-19T08:25:37;9.20;;;2.10;;
57325;SDS011;43161;50.950;18.224;2023-09-19T08:28:04;8.40;;;2.10;;
57325;SDS011;43161;50.950;18.224;2023-09-19T08:30:33;6.10;;;2.00;;
57325;SDS011;43161;50.950;18.224;2023-09-19T08:33:00;8.50;;;2.10;;
57325;SDS011;43161;50.950;18.224;2023-09-19T08:35:27;8.40;;;2.00;;
57325;SDS011;43161;50.950;18.224;2023-09-19T08:37:53;8.20;;;1.90;;
57325;SDS011;43161;50.950;18.224;2023-09-19T08:40:21;7.00;;;1.90;;
57325;SDS011;43161;50.950;18.224;2023-09-19T08:42:50;8.00;;;2.00;;
57325;SDS011;43161;50.950;18.224;2023-09-19T08:45:17;6.80;;;1.80;;
57325;SDS011;43161;50.950;18.224;2023-09-19T08:50:36;9.10;;;2.00;;
57325;SDS011;43161;50.950;18.224;2023-09-19T08:53:21;8.90;;;2.20;;
57325;SDS011;43161;50.950;18.224;2023-09-19T08:55:53;8.70;;;2.20;;
57325;SDS011;43161;50.950;18.224;2023-09-19T08:58:21;7.20;;;2.00;;
57325;SDS011;43161;50.950;18.224;2023-09-19T09:00:53;7.50;;;2.30;;
57325;SDS011;43161;50.950;18.224;2023-09-19T09:03:19;8.80;;;2.00;;
57325;SDS011;43161;50.950;18.224;2023-09-19T09:05:46;7.50;;;2.10;;
57325;SDS011;43161;50.950;18.224;2023-09-19T09:08:13;8.90;;;2.10;;
57325;SDS011;43161;50.950;18.224;2023-09-19T09:10:39;7.40;;;2.00;;
57325;SDS011;43161;50.950;18.224;2023-09-19T09:13:06;8.10;;;2.10;;
57325;SDS011;43161;50.950;18.224;2023-09-19T09:15:32;7.50;;;2.00;;
57325;SDS011;43161;50.950;18.224;2023-09-19T09:18:01;8.80;;;2.10;;
57325;SDS011;43161;50.950;18.224;2023-09-19T09:20:28;8.20;;;2.20;;
57325;SDS011;43161;50.950;18.224;2023-09-19T09:22:54;8.10;;;2.10;;
57325;SDS011;43161;50.950;18.224;2023-09-19T09:25:23;8.60;;;2.30;;
57325;SDS011;43161;50.950;18.224;2023-09-19T09:28:34;7.20;;;2.40;;
57325;SDS011;43161;50.950;18.224;2023-09-19T09:31:01;8.70;;;2.30;;
57325;SDS011;43161;50.950;18.224;2023-09-19T09:33:34;8.20;;;2.30;;
57325;SDS011;43161;50.950;18.224;2023-09-19T09:36:01;7.30;;;2.20;;
57325;SDS011;43161;50.950;18.224;2023-09-19T09:38:29;9.10;;;2.20;;
57325;SDS011;43161;50.950;18.224;2023-09-19T09:41:11;14.30;;;2.40;;
57325;SDS011;43161;50.950;18.224;2023-09-19T09:43:41;7.20;;;2.20;;
57325;SDS011;43161;50.950;18.224;2023-09-19T09:46:12;8.10;;;2.30;;
57325;SDS011;43161;50.950;18.224;2023-09-19T09:48:44;7.50;;;2.50;;
57325;SDS011;43161;50.950;18.224;2023-09-19T10:02:28;10.10;;;3.00;;
57325;SDS011;43161;50.950;18.224;2023-09-19T10:04:55;10.00;;;2.60;;
57325;SDS011;43161;50.950;18.224;2023-09-19T10:07:38;10.30;;;2.60;;
57325;SDS011;43161;50.950;18.224;2023-09-19T10:10:06;11.80;;;2.80;;
57325;SDS011;43161;50.950;18.224;2023-09-19T10:12:47;13.60;;;3.00;;
57325;SDS011;43161;50.950;18.224;2023-09-19T10:15:17;9.90;;;2.60;;
57325;SDS011;43161;50.950;18.224;2023-09-19T10:17:45;8.80;;;2.90;;
57325;SDS011;43161;50.950;18.224;2023-09-19T10:20:16;9.20;;;2.60;;
57325;SDS011;43161;50.950;18.224;2023-09-19T10:23:01;10.30;;;3.20;;
57325;SDS011;43161;50.950;18.224;2023-09-19T10:25:37;9.50;;;2.90;;
57325;SDS011;43161;50.950;18.224;2023-09-19T10:28:05;8.70;;;2.90;;
57325;SDS011;43161;50.950;18.224;2023-09-19T10:33:21;7.80;;;2.70;;
57325;SDS011;43161;50.950;18.224;2023-09-19T10:35:51;8.10;;;2.40;;
57325;SDS011;43161;50.950;18.224;2023-09-19T10:38:18;9.60;;;2.80;;
57325;SDS011;43161;50.950;18.224;2023-09-19T10:40:53;10.30;;;2.80;;
57325;SDS011;43161;50.950;18.224;2023-09-19T10:43:20;9.20;;;2.70;;
57325;SDS011;43161;50.950;18.224;2023-09-19T10:45:47;8.70;;;2.90;;
57325;SDS011;43161;50.950;18.224;2023-09-19T10:48:18;9.90;;;2.80;;
57325;SDS011;43161;50.950;18.224;2023-09-19T10:53:54;9.80;;;2.90;;
57325;SDS011;43161;50.950;18.224;2023-09-19T10:59:16;10.60;;;2.70;;
57325;SDS011;43161;50.950;18.224;2023-09-19T11:01:44;9.70;;;2.70;;
57325;SDS011;43161;50.950;18.224;2023-09-19T11:04:20;9.20;;;2.80;;
57325;SDS011;43161;50.950;18.224;2023-09-19T11:15:06;6.80;;;2.30;;
57325;SDS011;43161;50.950;18.224;2023-09-19T11:17:40;7.70;;;2.20;;
57325;SDS011;43161;50.950;18.224;2023-09-19T11:30:41;8.00;;;2.60;;
57325;SDS011;43161;50.950;18.224;2023-09-19T11:43:52;6.40;;;2.10;;
57325;SDS011;43161;50.950;18.224;2023-09-19T11:47:14;10.10;;;2.50;;
57325;SDS011;43161;50.950;18.224;2023-09-19T11:49:26;7.90;;;2.30;;
57325;SDS011;43161;50.950;18.224;2023-09-19T11:51:57;5.80;;;1.60;;
57325;SDS011;43161;50.950;18.224;2023-09-19T11:54:26;5.90;;;1.60;;
57325;SDS011;43161;50.950;18.224;2023-09-19T11:56:57;6.10;;;1.80;;
57325;SDS011;43161;50.950;18.224;2023-09-19T11:59:25;6.70;;;1.80;;
57325;SDS011;43161;50.950;18.224;2023-09-19T12:01:56;6.80;;;1.50;;
57325;SDS011;43161;50.950;18.224;2023-09-19T12:07:09;4.90;;;1.40;;
57325;SDS011;43161;50.950;18.224;2023-09-19T12:09:40;42.90;;;27.00;;
57325;SDS011;43161;50.950;18.224;2023-09-19T12:12:46;6.30;;;1.60;;
57325;SDS011;43161;50.950;18.224;2023-09-19T12:15:05;5.50;;;1.40;;
57325;SDS011;43161;50.950;18.224;2023-09-19T12:17:38;12.00;;;3.30;;
57325;SDS011;43161;50.950;18.224;2023-09-19T12:20:06;15.00;;;6.80;;
57325;SDS011;43161;50.950;18.224;2023-09-19T12:22:42;15.10;;;5.00;;
57325;SDS011;43161;50.950;18.224;2023-09-19T12:25:09;10.70;;;5.00;;
57325;SDS011;43161;50.950;18.224;2023-09-19T12:30:19;10.20;;;2.50;;
57325;SDS011;43161;50.950;18.224;2023-09-19T12:32:46;8.50;;;1.60;;
57325;SDS011;43161;50.950;18.224;2023-09-19T12:38:00;5.40;;;1.40;;
57325;SDS011;43161;50.950;18.224;2023-09-19T12:40:26;11.40;;;2.50;;
57325;SDS011;43161;50.950;18.224;2023-09-19T12:42:58;7.40;;;1.80;;
57325;SDS011;43161;50.950;18.224;2023-09-19T12:45:25;10.60;;;2.10;;
57325;SDS011;43161;50.950;18.224;2023-09-19T12:53:34;6.20;;;1.30;;
57325;SDS011;43161;50.950;18.224;2023-09-19T12:56:03;7.60;;;1.40;;
57325;SDS011;43161;50.950;18.224;2023-09-19T12:58:34;4.60;;;1.10;;
57325;SDS011;43161;50.950;18.224;2023-09-19T13:01:00;6.20;;;1.40;;
57325;SDS011;43161;50.950;18.224;2023-09-19T13:03:27;6.10;;;1.40;;
57325;SDS011;43161;50.950;18.224;2023-09-19T13:06:02;5.10;;;1.30;;
57325;SDS011;43161;50.950;18.224;2023-09-19T13:11:06;5.00;;;1.50;;
57325;SDS011;43161;50.950;18.224;2023-09-19T13:13:35;7.70;;;1.40;;
57325;SDS011;43161;50.950;18.224;2023-09-19T13:16:02;8.30;;;1.30;;
57325;SDS011;43161;50.950;18.224;2023-09-19T13:18:41;5.20;;;1.20;;
57325;SDS011;43161;50.950;18.224;2023-09-19T13:21:11;8.00;;;1.30;;
57325;SDS011;43161;50.950;18.224;2023-09-19T13:23:41;5.20;;;1.30;;
57325;SDS011;43161;50.950;18.224;2023-09-19T13:26:09;6.70;;;1.10;;
57325;SDS011;43161;50.950;18.224;2023-09-19T13:28:37;7.00;;;1.40;;
57325;SDS011;43161;50.950;18.224;2023-09-19T13:31:03;5.60;;;1.20;;
57325;SDS011;43161;50.950;18.224;2023-09-19T13:33:29;6.60;;;1.20;;
57325;SDS011;43161;50.950;18.224;2023-09-19T13:35:56;6.20;;;1.40;;
57325;SDS011;43161;50.950;18.224;2023-09-19T13:38:22;7.00;;;1.10;;
57325;SDS011;43161;50.950;18.224;2023-09-19T13:40:48;3.90;;;1.10;;
57325;SDS011;43161;50.950;18.224;2023-09-19T13:43:17;3.00;;;1.00;;
57325;SDS011;43161;50.950;18.224;2023-09-19T13:45:43;3.50;;;0.80;;
57325;SDS011;43161;50.950;18.224;2023-09-19T13:48:09;4.60;;;0.90;;
57325;SDS011;43161;50.950;18.224;2023-09-19T13:50:37;4.80;;;1.00;;
57325;SDS011;43161;50.950;18.224;2023-09-19T13:53:10;5.10;;;0.80;;
57325;SDS011;43161;50.950;18.224;2023-09-19T13:55:37;3.60;;;0.80;;
57325;SDS011;43161;50.950;18.224;2023-09-19T13:58:03;6.10;;;1.00;;
57325;SDS011;43161;50.950;18.224;2023-09-19T14:00:31;8.50;;;1.20;;
57325;SDS011;43161;50.950;18.224;2023-09-19T14:03:02;3.50;;;1.10;;
57325;SDS011;43161;50.950;18.224;2023-09-19T14:05:29;3.90;;;0.80;;
57325;SDS011;43161;50.950;18.224;2023-09-19T14:07:56;3.30;;;0.90;;
57325;SDS011;43161;50.950;18.224;2023-09-19T14:10:22;4.00;;;1.20;;
57325;SDS011;43161;50.950;18.224;2023-09-19T14:12:48;6.40;;;1.00;;
57325;SDS011;43161;50.950;18.224;2023-09-19T14:15:14;4.50;;;1.00;;
57325;SDS011;43161;50.950;18.224;2023-09-19T14:17:39;3.10;;;0.80;;
57325;SDS011;43161;50.950;18.224;2023-09-19T14:20:10;6.20;;;1.10;;
57325;SDS011;43161;50.950;18.224;2023-09-19T14:22:36;4.10;;;1.00;;
57325;SDS011;43161;50.950;18.224;2023-09-19T14:25:05;5.40;;;0.90;;
57325;SDS011;43161;50.950;18.224;2023-09-19T14:27:31;3.50;;;0.80;;
57325;SDS011;43161;50.950;18.224;2023-09-19T14:29:57;3.80;;;0.90;;
57325;SDS011;43161;50.950;18.224;2023-09-19T14:32:23;4.60;;;0.90;;
57325;SDS011;43161;50.950;18.224;2023-09-19T14:34:48;7.00;;;1.10;;
57325;SDS011;43161;50.950;18.224;2023-09-19T14:37:14;3.20;;;0.90;;
57325;SDS011;43161;50.950;18.224;2023-09-19T14:39:41;4.50;;;0.90;;
57325;SDS011;43161;50.950;18.224;2023-09-19T14:42:10;5.00;;;1.20;;
57325;SDS011;43161;50.950;18.224;2023-09-19T14:44:36;3.70;;;1.00;;
57325;SDS011;43161;50.950;18.224;2023-09-19T14:47:04;3.70;;;0.90;;
57325;SDS011;43161;50.950;18.224;2023-09-19T14:49:33;4.80;;;1.00;;
57325;SDS011;43161;50.950;18.224;2023-09-19T14:52:00;3.60;;;0.90;;
57325;SDS011;43161;50.950;18.224;2023-09-19T14:54:29;7.70;;;2.00;;
57325;SDS011;43161;50.950;18.224;2023-09-19T14:56:56;5.50;;;0.90;;
57325;SDS011;43161;50.950;18.224;2023-09-19T14:59:30;4.20;;;0.90;;
57325;SDS011;43161;50.950;18.224;2023-09-19T15:01:57;6.10;;;1.00;;
57325;SDS011;43161;50.950;18.224;2023-09-19T15:04:23;4.80;;;1.40;;
57325;SDS011;43161;50.950;18.224;2023-09-19T15:06:49;5.60;;;1.60;;
57325;SDS011;43161;50.950;18.224;2023-09-19T15:09:16;5.90;;;1.50;;
57325;SDS011;43161;50.950;18.224;2023-09-19T15:11:44;6.40;;;2.00;;
57325;SDS011;43161;50.950;18.224;2023-09-19T15:14:09;5.60;;;1.50;;
57325;SDS011;43161;50.950;18.224;2023-09-19T15:16:35;5.70;;;1.10;;
57325;SDS011;43161;50.950;18.224;2023-09-19T15:19:01;3.50;;;0.80;;
57325;SDS011;43161;50.950;18.224;2023-09-19T15:21:27;6.80;;;1.20;;
57325;SDS011;43161;50.950;18.224;2023-09-19T15:23:53;6.30;;;1.00;;
57325;SDS011;43161;50.950;18.224;2023-09-19T15:26:18;3.90;;;1.00;;
57325;SDS011;43161;50.950;18.224;2023-09-19T15:28:46;5.20;;;1.00;;
57325;SDS011;43161;50.950;18.224;2023-09-19T15:31:13;5.00;;;0.80;;
57325;SDS011;43161;50.950;18.224;2023-09-19T15:33:39;5.60;;;1.00;;
57325;SDS011;43161;50.950;18.224;2023-09-19T15:36:09;5.00;;;1.00;;
57325;SDS011;43161;50.950;18.224;2023-09-19T15:41:25;6.10;;;1.20;;
57325;SDS011;43161;50.950;18.224;2023-09-19T15:43:54;6.40;;;1.40;;
57325;SDS011;43161;50.950;18.224;2023-09-19T15:46:22;4.80;;;1.20;;
57325;SDS011;43161;50.950;18.224;2023-09-19T15:48:48;5.40;;;1.10;;
57325;SDS011;43161;50.950;18.224;2023-09-19T15:51:15;5.90;;;1.10;;
57325;SDS011;43161;50.950;18.224;2023-09-19T15:53:47;4.90;;;1.30;;
57325;SDS011;43161;50.950;18.224;2023-09-19T15:56:15;8.00;;;2.00;;
57325;SDS011;43161;50.950;18.224;2023-09-19T15:58:45;7.10;;;2.10;;
57325;SDS011;43161;50.950;18.224;2023-09-19T16:01:11;7.10;;;1.70;;